Time;durP1;ratioP1;P1;durP2;ratioP2;P2;SDS_P1;SDS_P2;PMS_P1;PMS_P2;Temp;Humidity;BMP_temperature;BMP_pressure;BME280_temperature;BME280_humidity;BME280_pressure;Samples;Min_cycle;Max_cycle;Signal;HPM_P1;HPM_P2
2023/08/20 00:01:56;;;;;;;18.80;10.98;;;;;;;21.50;100.00;101397.81;6119427;28;20033;-66
2023/08/20 00:04:52;;;;;;;18.40;9.93;;;;;;;21.46;100.00;101401.91;6116431;28;20024;-66
2023/08/20 00:07:48;;;;;;;19.40;10.20;;;;;;;21.48;100.00;101399.84;6118697;28;20453;-66
2023/08/20 00:10:43;;;;;;;20.97;10.83;;;;;;;21.45;100.00;101405.63;6120806;28;20082;-65
2023/08/20 00:13:39;;;;;;;22.03;11.83;;;;;;;21.43;100.00;101399.63;6119993;28;20387;-68
2023/08/20 00:16:34;;;;;;;24.38;12.50;;;;;;;21.38;100.00;101388.59;6115567;28;20032;-66
2023/08/20 00:19:30;;;;;;;23.95;12.30;;;;;;;21.42;100.00;101406.03;6113474;28;20679;-65
2023/08/20 00:22:26;;;;;;;22.23;12.23;;;;;;;21.42;100.00;101417.66;6120241;28;20449;-66
2023/08/20 00:25:21;;;;;;;23.55;13.23;;;;;;;21.35;100.00;101401.47;6134741;28;20040;-66
2023/08/20 00:28:17;;;;;;;25.27;12.10;;;;;;;21.46;100.00;101418.94;6149190;28;20503;-66
2023/08/20 00:31:12;;;;;;;19.40;11.80;;;;;;;21.47;100.00;101428.69;6120798;28;20399;-65
2023/08/20 00:34:08;;;;;;;20.33;12.20;;;;;;;21.38;100.00;101431.78;6117088;28;20395;-66
2023/08/20 00:37:03;;;;;;;22.00;12.40;;;;;;;21.36;100.00;101440.06;6123817;28;20267;-67
2023/08/20 00:39:59;;;;;;;25.88;12.77;;;;;;;21.34;100.00;101421.38;6125479;28;20028;-65
2023/08/20 00:42:54;;;;;;;23.75;13.25;;;;;;;21.24;100.00;101417.38;6126670;28;20076;-66
2023/08/20 00:45:49;;;;;;;22.93;13.70;;;;;;;21.21;100.00;101428.56;6124558;28;20024;-66
2023/08/20 00:48:45;;;;;;;23.07;13.10;;;;;;;21.04;100.00;101425.28;6114184;28;20047;-66
2023/08/20 00:51:40;;;;;;;28.53;13.60;;;;;;;20.95;100.00;101429.19;6123435;28;20305;-66
2023/08/20 00:54:36;;;;;;;25.80;13.43;;;;;;;20.97;100.00;101445.16;6124415;28;20821;-67
2023/08/20 00:57:31;;;;;;;25.75;13.48;;;;;;;20.90;100.00;101433.50;6124307;28;20695;-66
2023/08/20 01:00:26;;;;;;;24.90;14.17;;;;;;;20.78;100.00;101435.88;6144989;28;20486;-67
2023/08/20 01:03:22;;;;;;;25.43;14.97;;;;;;;20.72;100.00;101459.06;6115861;28;20051;-66
2023/08/20 01:06:25;;;;;;;24.77;13.70;;;;;;;20.72;100.00;101455.53;6118001;28;20032;-67
2023/08/20 01:09:34;;;;;;;28.02;14.10;;;;;;;20.74;100.00;101453.47;6121758;28;20081;-66
2023/08/20 01:12:29;;;;;;;28.73;14.82;;;;;;;20.61;100.00;101440.72;6120311;28;20037;-66
2023/08/20 01:15:25;;;;;;;26.75;13.55;;;;;;;20.60;100.00;101443.63;6123434;28;20039;-66
2023/08/20 01:18:20;;;;;;;26.13;15.20;;;;;;;20.70;100.00;101444.09;6123331;28;20028;-67
2023/08/20 01:21:39;;;;;;;28.40;15.27;;;;;;;20.84;100.00;101461.22;6123139;28;20031;-66
2023/08/20 01:24:54;;;;;;;27.70;15.80;;;;;;;20.89;100.00;101473.09;6093993;28;20123;-67
2023/08/20 01:27:52;;;;;;;31.20;15.38;;;;;;;20.93;100.00;101471.66;6132296;28;20115;-66
2023/08/20 01:30:48;;;;;;;28.60;16.15;;;;;;;20.87;100.00;101483.25;6124069;28;20040;-66
2023/08/20 01:33:43;;;;;;;27.83;14.70;;;;;;;20.88;100.00;101474.13;6121754;28;20047;-66
2023/08/20 01:36:39;;;;;;;29.90;14.43;;;;;;;20.82;100.00;101466.81;6123794;28;20312;-66
2023/08/20 01:39:34;;;;;;;27.20;14.53;;;;;;;20.93;100.00;101479.75;6124920;28;20440;-66
2023/08/20 01:42:29;;;;;;;23.30;12.17;;;;;;;20.95;100.00;101472.34;6124105;28;20278;-65
2023/08/20 01:45:26;;;;;;;23.60;11.87;;;;;;;20.91;100.00;101479.13;6123308;28;20460;-67
2023/08/20 01:48:21;;;;;;;23.88;11.15;;;;;;;20.74;100.00;101477.72;6123704;28;20395;-65
2023/08/20 01:51:16;;;;;;;18.07;9.77;;;;;;;20.78;100.00;101485.25;6123559;28;20040;-66
2023/08/20 01:54:11;;;;;;;19.47;11.13;;;;;;;20.81;100.00;101484.03;6122981;28;20024;-66
2023/08/20 01:57:07;;;;;;;17.50;10.20;;;;;;;20.77;100.00;101488.97;6123667;28;20033;-67
2023/08/20 02:00:04;;;;;;;18.07;10.10;;;;;;;20.70;100.00;101469.22;6133443;28;20483;-67
2023/08/20 02:03:00;;;;;;;16.23;9.75;;;;;;;20.66;100.00;101450.91;6123400;28;20037;-66
2023/08/20 02:05:55;;;;;;;18.77;10.00;;;;;;;20.65;100.00;101473.50;6122786;28;20035;-67
2023/08/20 02:08:50;;;;;;;19.40;10.00;;;;;;;20.50;100.00;101464.63;6123180;28;20028;-65
2023/08/20 02:11:46;;;;;;;20.10;9.67;;;;;;;20.56;100.00;101474.66;6123455;28;20033;-65
2023/08/20 02:14:41;;;;;;;15.13;8.40;;;;;;;20.40;100.00;101446.09;6122709;28;20089;-65
2023/08/20 02:17:36;;;;;;;17.40;9.37;;;;;;;20.25;100.00;101452.59;6130805;28;20043;-67
2023/08/20 02:20:32;;;;;;;15.48;8.95;;;;;;;20.14;100.00;101449.31;6123358;28;20032;-66
2023/08/20 02:23:27;;;;;;;18.25;9.13;;;;;;;20.09;100.00;101449.06;6121644;28;20035;-66
2023/08/20 02:26:22;;;;;;;18.73;9.50;;;;;;;20.15;100.00;101460.94;6123269;28;20046;-66
2023/08/20 02:29:18;;;;;;;16.20;8.63;;;;;;;20.11;100.00;101448.88;6123451;28;20399;-65
2023/08/20 02:32:13;;;;;;;16.55;8.55;;;;;;;20.02;100.00;101460.78;6139313;28;20051;-66
2023/08/20 02:35:09;;;;;;;14.47;8.17;;;;;;;19.79;100.00;101438.53;6139579;28;20020;-65
2023/08/20 02:38:05;;;;;;;17.98;9.30;;;;;;;19.84;100.00;101458.47;6115760;28;20021;-66
2023/08/20 02:41:01;;;;;;;15.18;8.93;;;;;;;19.78;100.00;101461.94;6122397;28;20032;-66
2023/08/20 02:43:56;;;;;;;16.48;9.07;;;;;;;19.61;100.00;101452.38;6123541;28;20384;-66
2023/08/20 02:46:51;;;;;;;16.63;9.20;;;;;;;19.61;100.00;101473.91;6121348;28;20028;-66
2023/08/20 02:49:47;;;;;;;19.10;9.93;;;;;;;19.53;100.00;101476.69;6122591;28;20025;-65
2023/08/20 02:52:42;;;;;;;23.07;10.00;;;;;;;19.43;100.00;101465.38;6122093;28;20403;-66
2023/08/20 02:55:37;;;;;;;19.30;9.88;;;;;;;19.31;100.00;101473.03;6121638;28;20392;-64
2023/08/20 02:58:33;;;;;;;17.70;9.97;;;;;;;19.12;100.00;101468.19;6124072;28;20063;-66
2023/08/20 03:01:28;;;;;;;19.40;8.93;;;;;;;19.15;100.00;101475.91;6122004;28;20311;-66
2023/08/20 03:04:23;;;;;;;19.97;9.13;;;;;;;18.90;100.00;101474.44;6121438;28;20037;-65
2023/08/20 03:07:19;;;;;;;19.47;8.77;;;;;;;18.83;100.00;101485.06;6121963;28;20036;-66
2023/08/20 03:10:14;;;;;;;16.70;9.23;;;;;;;18.74;100.00;101478.13;6122106;28;20028;-66
2023/08/20 03:13:09;;;;;;;16.63;9.52;;;;;;;18.85;100.00;101482.22;6122048;28;20162;-66
2023/08/20 03:16:05;;;;;;;21.37;9.83;;;;;;;18.83;100.00;101492.31;6129418;28;20046;-65
2023/08/20 03:19:00;;;;;;;19.10;8.93;;;;;;;18.91;100.00;101498.47;6122152;28;20031;-66
2023/08/20 03:21:55;;;;;;;16.13;9.30;;;;;;;18.83;100.00;101485.06;6121470;28;20373;-66
2023/08/20 03:24:51;;;;;;;16.83;8.90;;;;;;;18.98;100.00;101495.88;6120060;28;20047;-66
2023/08/20 03:27:47;;;;;;;19.65;9.07;;;;;;;19.20;100.00;101499.53;6121921;28;20399;-66
2023/08/20 03:30:42;;;;;;;20.37;10.53;;;;;;;19.10;100.00;101489.06;6121469;28;20040;-66
2023/08/20 03:33:37;;;;;;;16.70;9.43;;;;;;;18.98;100.00;101491.34;6121247;28;20266;-65
2023/08/20 03:36:33;;;;;;;19.93;10.00;;;;;;;18.96;100.00;101490.69;6121618;28;20258;-65
2023/08/20 03:39:28;;;;;;;17.60;10.73;;;;;;;18.87;100.00;101485.56;6121839;28;20466;-66
2023/08/20 03:42:23;;;;;;;20.95;10.57;;;;;;;19.09;100.00;101505.34;6139861;28;20036;-66
2023/08/20 03:45:19;;;;;;;18.80;10.97;;;;;;;18.95;100.00;101502.47;6129608;28;20036;-66
2023/08/20 03:48:14;;;;;;;21.53;10.27;;;;;;;19.03;100.00;101497.00;6121815;28;20046;-66
2023/08/20 03:51:09;;;;;;;20.27;10.27;;;;;;;18.97;100.00;101503.09;6121360;28;20036;-66
2023/08/20 03:54:04;;;;;;;18.00;9.83;;;;;;;18.96;100.00;101492.53;6120524;28;20039;-65
2023/08/20 03:57:00;;;;;;;19.27;10.30;;;;;;;19.03;100.00;101502.38;6121443;28;20045;-66
2023/08/20 03:59:55;;;;;;;18.75;10.32;;;;;;;18.90;100.00;101504.84;6141843;28;20024;-66
2023/08/20 04:02:50;;;;;;;20.83;10.17;;;;;;;18.95;100.00;101510.53;6151067;28;20062;-66
2023/08/20 04:05:46;;;;;;;17.50;9.87;;;;;;;18.89;100.00;101522.00;6149934;28;20030;-66
2023/08/20 04:08:42;;;;;;;17.77;10.40;;;;;;;18.85;100.00;101507.25;6150818;28;20040;-66
2023/08/20 04:11:38;;;;;;;19.67;10.35;;;;;;;18.94;100.00;101503.47;6131056;28;20032;-66
2023/08/20 04:14:33;;;;;;;21.42;10.73;;;;;;;19.06;100.00;101516.47;6125125;28;20086;-65
2023/08/20 04:17:28;;;;;;;18.70;10.07;;;;;;;19.09;100.00;101511.59;6134134;28;20028;-66
2023/08/20 04:20:24;;;;;;;16.63;9.67;;;;;;;19.14;100.00;101535.22;6125480;28;20032;-66
2023/08/20 04:23:19;;;;;;;18.80;9.93;;;;;;;19.20;100.00;101539.88;6125289;28;20032;-65
2023/08/20 04:26:15;;;;;;;16.85;9.95;;;;;;;19.30;100.00;101552.06;6125844;28;20290;-66
2023/08/20 04:29:10;;;;;;;17.93;9.47;;;;;;;19.23;100.00;101534.16;6126170;28;20048;-66
2023/08/20 04:32:05;;;;;;;16.47;9.97;;;;;;;19.30;100.00;101549.38;6125802;28;20036;-65
2023/08/20 04:35:01;;;;;;;19.10;9.23;;;;;;;19.35;100.00;101552.34;6126642;28;20026;-66
2023/08/20 04:37:56;;;;;;;19.27;10.33;;;;;;;19.49;100.00;101573.09;6125363;28;20033;-64
2023/08/20 04:40:51;;;;;;;20.10;9.60;;;;;;;19.46;100.00;101568.06;6125290;28;20765;-64
2023/08/20 04:43:47;;;;;;;19.50;10.47;;;;;;;19.51;100.00;101572.94;6124955;28;20384;-65
2023/08/20 04:46:42;;;;;;;15.93;9.10;;;;;;;19.69;100.00;101569.88;6125285;28;20067;-66
2023/08/20 04:49:37;;;;;;;16.73;9.10;;;;;;;19.77;100.00;101559.88;6124978;28;20036;-65
2023/08/20 04:52:33;;;;;;;19.63;9.07;;;;;;;19.83;100.00;101548.34;6125269;28;20086;-67
2023/08/20 04:55:29;;;;;;;19.35;9.75;;;;;;;20.05;100.00;101541.19;6124055;28;20853;-66
2023/08/20 04:58:24;;;;;;;16.20;9.77;;;;;;;20.16;100.00;101538.84;6128166;28;20123;-66
2023/08/20 05:01:19;;;;;;;18.35;10.60;;;;;;;20.06;100.00;101549.06;6149542;28;20270;-65
2023/08/20 05:04:15;;;;;;;15.73;9.57;;;;;;;20.04;100.00;101551.13;6148650;28;20479;-66
2023/08/20 05:07:10;;;;;;;19.67;9.40;;;;;;;20.11;100.00;101545.84;6149499;28;20016;-66
2023/08/20 05:10:06;;;;;;;17.53;10.40;;;;;;;19.98;100.00;101551.03;6141708;28;20036;-66
2023/08/20 05:13:01;;;;;;;16.77;9.52;;;;;;;20.03;100.00;101560.22;6124762;28;20054;-65
2023/08/20 05:15:56;;;;;;;16.43;9.77;;;;;;;20.09;100.00;101551.41;6132361;28;20115;-66
2023/08/20 05:18:51;;;;;;;20.00;10.60;;;;;;;20.42;100.00;101564.47;6124554;28;20502;-66
2023/08/20 05:21:47;;;;;;;18.30;10.07;;;;;;;20.50;100.00;101572.44;6124463;28;20040;-65
2023/08/20 05:24:42;;;;;;;16.52;9.07;;;;;;;20.62;100.00;101570.94;6127038;28;20036;-66
2023/08/20 05:27:37;;;;;;;16.23;9.93;;;;;;;20.71;100.00;101573.31;6147535;28;20495;-67
2023/08/20 05:30:33;;;;;;;17.00;9.17;;;;;;;20.51;100.00;101574.97;6143528;28;20048;-65
2023/08/20 05:33:29;;;;;;;17.55;8.90;;;;;;;20.45;100.00;101559.53;6134947;28;20047;-65
2023/08/20 05:36:24;;;;;;;17.57;8.47;;;;;;;20.62;100.00;101576.31;6128042;28;20093;-65
2023/08/20 05:39:19;;;;;;;15.27;9.20;;;;;;;20.71;100.00;101576.00;6136502;28;20064;-66
2023/08/20 05:42:15;;;;;;;16.20;9.47;;;;;;;21.03;100.00;101582.78;6124227;28;20040;-67
2023/08/20 05:45:10;;;;;;;13.80;8.30;;;;;;;21.89;100.00;101565.44;6127283;28;20395;-65
2023/08/20 05:48:05;;;;;;;11.20;7.37;;;;;;;22.41;100.00;101568.41;6124217;28;20043;-66
2023/08/20 05:51:01;;;;;;;13.77;7.82;;;;;;;22.74;100.00;101563.13;6123915;28;20028;-66
2023/08/20 05:53:56;;;;;;;15.47;8.37;;;;;;;22.73;100.00;101569.56;6123107;28;20033;-66
2023/08/20 05:56:51;;;;;;;12.40;7.17;;;;;;;22.99;100.00;101575.00;6123739;28;20266;-65
2023/08/20 05:59:47;;;;;;;12.17;7.30;;;;;;;23.28;100.00;101590.03;6139279;28;20059;-66
2023/08/20 06:02:42;;;;;;;12.77;7.15;;;;;;;23.12;100.00;101587.72;6123821;28;20028;-65
2023/08/20 06:05:38;;;;;;;15.03;7.47;;;;;;;22.82;100.00;101572.91;6125699;28;20040;-65
2023/08/20 06:08:33;;;;;;;13.52;6.90;;;;;;;22.79;100.00;101576.03;6128574;28;20032;-65
2023/08/20 06:11:28;;;;;;;15.40;6.77;;;;;;;22.63;100.00;101568.25;6123708;28;20044;-66
2023/08/20 06:14:24;;;;;;;12.03;6.57;;;;;;;22.72;100.00;101556.25;6122971;28;20494;-66
2023/08/20 06:17:19;;;;;;;15.77;7.90;;;;;;;21.70;100.00;101552.59;6125187;28;20032;-67
2023/08/20 06:20:15;;;;;;;13.93;6.87;;;;;;;22.46;100.00;101552.41;6132179;28;20036;-66
2023/08/20 06:23:10;;;;;;;14.47;7.10;;;;;;;22.63;100.00;101533.09;6125316;28;20028;-66
2023/08/20 06:26:05;;;;;;;14.10;5.90;;;;;;;22.94;100.00;101536.91;6126831;28;20036;-65
2023/08/20 06:29:00;;;;;;;9.53;5.70;;;;;;;22.70;97.73;101539.38;6147376;28;20077;-66
2023/08/20 06:31:56;;;;;;;8.83;4.83;;;;;;;22.76;96.90;101542.09;6147188;28;20040;-66
2023/08/20 06:34:51;;;;;;;10.30;5.13;;;;;;;22.80;94.55;101542.53;6132036;28;20086;-67
2023/08/20 06:37:46;;;;;;;9.20;5.60;;;;;;;22.58;97.30;101533.72;6122506;28;20040;-66
2023/08/20 06:40:42;;;;;;;13.87;6.80;;;;;;;22.51;99.90;101538.25;6122537;28;20499;-66
2023/08/20 06:43:37;;;;;;;12.83;6.67;;;;;;;22.53;99.50;101547.00;6121849;28;20038;-66
2023/08/20 06:46:32;;;;;;;13.77;6.73;;;;;;;22.28;100.00;101530.50;6122214;28;20033;-66
2023/08/20 06:49:28;;;;;;;14.30;6.68;;;;;;;22.40;100.00;101542.38;6122438;28;20049;-66
2023/08/20 06:52:23;;;;;;;10.33;5.30;;;;;;;23.38;93.93;101549.88;6112128;28;20384;-66
2023/08/20 06:55:18;;;;;;;8.70;4.57;;;;;;;22.95;90.76;101556.69;6121444;28;20282;-66
2023/08/20 06:58:13;;;;;;;10.77;4.13;;;;;;;23.40;87.61;101555.91;6123022;28;20603;-66
2023/08/20 07:01:09;;;;;;;8.70;4.07;;;;;;;23.60;84.15;101542.34;6146305;28;20270;-66
2023/08/20 07:04:05;;;;;;;7.67;4.00;;;;;;;23.90;83.38;101550.81;6113710;28;20461;-66
2023/08/20 07:07:00;;;;;;;9.23;3.03;;;;;;;23.62;82.27;101567.31;6121964;28;20388;-66
2023/08/20 07:09:55;;;;;;;5.83;3.23;;;;;;;24.22;79.17;101555.31;6120901;28;20043;-66
2023/08/20 07:12:51;;;;;;;8.27;3.37;;;;;;;24.87;74.24;101561.50;6121359;28;20758;-66
2023/08/20 07:15:46;;;;;;;7.75;3.63;;;;;;;24.19;77.13;101558.47;6117333;28;20036;-67
2023/08/20 07:18:41;;;;;;;9.07;4.27;;;;;;;25.14;75.21;101554.81;6121003;28;20040;-66
2023/08/20 07:21:36;;;;;;;7.13;3.50;;;;;;;24.94;77.67;101560.38;6121221;28;20388;-66
2023/08/20 07:24:34;;;;;;;8.07;4.40;;;;;;;25.09;77.94;101569.03;6117959;28;20032;-66
2023/08/20 07:27:30;;;;;;;12.73;5.75;;;;;;;24.15;84.16;101568.06;6120761;28;20433;-66
2023/08/20 07:30:25;;;;;;;8.02;4.75;;;;;;;24.71;82.24;101571.75;6121592;28;20055;-67
2023/08/20 07:33:20;;;;;;;8.10;4.15;;;;;;;24.55;80.75;101560.59;6120482;28;20037;-65
2023/08/20 07:36:16;;;;;;;7.87;3.90;;;;;;;25.69;75.60;101564.78;6120396;28;20040;-65
2023/08/20 07:39:12;;;;;;;8.40;5.05;;;;;;;25.31;77.76;101567.59;6121421;28;20047;-65
2023/08/20 07:42:07;;;;;;;9.10;4.93;;;;;;;25.10;80.13;101584.28;6121021;28;20029;-65
2023/08/20 07:45:03;;;;;;;10.15;4.65;;;;;;;25.82;75.75;101575.50;6120351;28;20437;-66
2023/08/20 07:47:58;;;;;;;11.25;4.40;;;;;;;25.74;75.51;101564.09;6129107;28;20024;-65
2023/08/20 07:50:53;;;;;;;10.27;4.57;;;;;;;26.10;71.41;101563.28;6130009;28;20055;-66
2023/08/20 07:53:49;;;;;;;11.00;4.17;;;;;;;25.74;73.67;101556.78;6142698;28;20391;-66
2023/08/20 07:56:44;;;;;;;9.87;4.20;;;;;;;25.94;72.82;101556.56;6120322;28;20037;-66
2023/08/20 07:59:39;;;;;;;8.33;4.17;;;;;;;25.87;73.95;101572.94;6134445;28;20039;-67
2023/08/20 08:02:34;;;;;;;8.10;4.03;;;;;;;25.96;75.84;101577.03;6138856;28;20279;-67
2023/08/20 08:05:30;;;;;;;6.97;3.73;;;;;;;25.99;72.42;101565.72;6117004;28;20082;-67
2023/08/20 08:08:25;;;;;;;6.40;3.10;;;;;;;26.08;68.80;101573.56;6120734;28;20025;-66
2023/08/20 08:11:20;;;;;;;7.07;3.15;;;;;;;25.56;69.22;101564.91;6113457;28;20303;-66
2023/08/20 08:14:16;;;;;;;6.20;2.90;;;;;;;25.81;69.02;101576.59;6119238;28;20511;-66
2023/08/20 08:17:11;;;;;;;6.20;2.93;;;;;;;25.69;65.26;101570.22;6114314;28;20468;-66
2023/08/20 08:20:07;;;;;;;6.83;3.60;;;;;;;25.86;66.49;101571.31;6120339;28;20275;-65
2023/08/20 08:23:03;;;;;;;8.10;3.58;;;;;;;25.26;70.29;101569.31;6124060;28;20082;-66
2023/08/20 08:25:58;;;;;;;9.82;4.05;;;;;;;25.19;71.79;101566.69;6122533;28;20032;-65
2023/08/20 08:28:53;;;;;;;7.70;3.93;;;;;;;25.68;71.97;101563.13;6120283;28;20063;-65
2023/08/20 08:31:49;;;;;;;6.93;3.47;;;;;;;26.40;67.33;101577.78;6124984;28;20682;-66
2023/08/20 08:34:44;;;;;;;5.55;3.08;;;;;;;26.46;65.96;101568.72;6119543;28;20546;-66
2023/08/20 08:37:40;;;;;;;6.67;3.10;;;;;;;26.51;65.21;101569.69;6119105;28;20089;-66
2023/08/20 08:40:35;;;;;;;5.07;2.83;;;;;;;26.50;60.78;101578.06;6116932;28;20047;-66
2023/08/20 08:43:31;;;;;;;5.45;3.08;;;;;;;26.65;62.20;101583.97;6119660;28;20043;-66
2023/08/20 08:46:27;;;;;;;5.07;2.83;;;;;;;26.98;62.30;101568.00;6124533;28;20094;-65
2023/08/20 08:49:22;;;;;;;6.77;3.47;;;;;;;27.20;60.82;101563.66;6126773;28;20041;-66
2023/08/20 08:52:18;;;;;;;8.10;3.60;;;;;;;26.61;63.62;101589.03;6122729;28;20685;-66
2023/08/20 08:55:13;;;;;;;5.25;3.25;;;;;;;26.99;63.71;101590.59;6121025;28;20450;-66
2023/08/20 08:58:09;;;;;;;6.93;3.40;;;;;;;27.34;62.08;101585.25;6138222;28;20107;-66
2023/08/20 09:01:04;;;;;;;7.25;2.88;;;;;;;27.03;62.20;101573.59;6117800;28;20283;-65
2023/08/20 09:03:59;;;;;;;5.70;2.70;;;;;;;27.58;60.22;101586.94;6119771;28;20056;-66
2023/08/20 09:06:55;;;;;;;4.77;3.10;;;;;;;27.79;57.32;101575.44;6121782;28;20287;-66
2023/08/20 09:09:50;;;;;;;6.35;2.88;;;;;;;27.84;53.83;101575.56;6122887;28;20123;-66
2023/08/20 09:12:47;;;;;;;6.00;3.00;;;;;;;28.11;54.24;101573.16;6123880;28;20047;-67
2023/08/20 09:15:42;;;;;;;6.82;3.17;;;;;;;28.45;54.45;101565.97;6121602;28;20049;-66
2023/08/20 09:18:42;;;;;;;6.47;3.03;;;;;;;28.10;54.65;101575.06;6121625;28;20321;-67
2023/08/20 09:21:37;;;;;;;5.43;3.15;;;;;;;27.91;55.24;101592.59;6121205;28;20390;-66
2023/08/20 09:24:39;;;;;;;6.20;3.70;;;;;;;28.01;57.10;101565.56;6120332;28;20037;-67
2023/08/20 09:27:41;;;;;;;5.72;2.67;;;;;;;28.02;55.62;101574.59;6123902;28;20045;-66
2023/08/20 09:30:39;;;;;;;5.78;3.35;;;;;;;28.54;53.58;101580.84;6123471;28;20472;-67
2023/08/20 09:33:34;;;;;;;4.30;2.80;;;;;;;27.96;52.97;101576.38;6122217;28;20055;-67
2023/08/20 09:36:34;;;;;;;6.63;2.93;;;;;;;27.58;55.93;101571.44;6123667;28;20040;-67
2023/08/20 09:39:29;;;;;;;6.25;2.97;;;;;;;27.31;58.15;101583.00;6123279;28;20035;-67
2023/08/20 09:42:28;;;;;;;8.07;2.93;;;;;;;27.16;58.20;101581.53;6121875;28;20036;-66
2023/08/20 09:45:28;;;;;;;8.65;3.22;;;;;;;27.45;55.77;101574.38;6121261;28;20750;-66
2023/08/20 09:48:24;;;;;;;4.68;2.67;;;;;;;27.61;55.89;101575.59;6122273;28;20057;-67
2023/08/20 09:51:24;;;;;;;6.45;2.63;;;;;;;27.89;54.46;101578.38;6113154;28;20066;-66
2023/08/20 09:54:26;;;;;;;6.28;2.95;;;;;;;27.89;55.66;101566.66;6119326;28;20568;-66
2023/08/20 09:57:30;;;;;;;5.22;2.40;;;;;;;28.49;52.12;101583.50;6119208;28;20115;-66
2023/08/20 10:00:27;;;;;;;5.03;2.70;;;;;;;28.50;51.42;101557.88;6129589;28;20081;-67
2023/08/20 10:03:23;;;;;;;4.72;2.63;;;;;;;28.66;49.79;101555.22;6119308;28;20028;-67
2023/08/20 10:06:18;;;;;;;4.47;2.50;;;;;;;28.57;49.77;101564.00;6121864;28;20086;-66
2023/08/20 10:09:14;;;;;;;4.53;2.50;;;;;;;28.84;50.21;101565.09;6123336;28;20028;-67
2023/08/20 10:12:09;;;;;;;5.57;2.63;;;;;;;28.82;49.19;101561.78;6122548;28;20275;-66
2023/08/20 10:15:05;;;;;;;4.57;2.47;;;;;;;28.79;49.92;101541.25;6120794;28;20043;-67
2023/08/20 10:18:00;;;;;;;5.80;2.30;;;;;;;28.98;49.83;101554.66;6121121;28;20036;-67
2023/08/20 10:20:59;;;;;;;5.33;2.70;;;;;;;28.89;49.62;101562.47;6122505;28;20036;-67
2023/08/20 10:23:55;;;;;;;5.03;2.38;;;;;;;28.54;51.37;101559.84;6120336;28;20285;-67
2023/08/20 10:27:10;;;;;;;6.10;2.35;;;;;;;28.70;48.60;101542.72;6119429;28;20033;-67
2023/08/20 10:30:16;;;;;;;5.30;2.67;;;;;;;28.75;50.25;101551.03;6122138;28;20089;-67
2023/08/20 10:33:14;;;;;;;5.15;2.47;;;;;;;28.18;52.35;101550.13;6112847;28;20036;-66
2023/08/20 10:36:15;;;;;;;4.82;2.58;;;;;;;28.75;48.99;101547.47;6119006;28;20035;-66
2023/08/20 10:39:20;;;;;;;7.30;2.90;;;;;;;27.84;51.79;101542.81;6116623;28;20024;-66
2023/08/20 10:42:15;;;;;;;4.28;2.38;;;;;;;28.27;50.91;101545.97;6115824;28;20029;-67
2023/08/20 10:45:10;;;;;;;5.97;2.38;;;;;;;28.95;51.19;101545.06;6120388;28;20024;-67
2023/08/20 10:48:06;;;;;;;4.93;2.30;;;;;;;29.33;49.90;101550.66;6120867;28;20368;-66
2023/08/20 10:51:14;;;;;;;4.97;2.80;;;;;;;29.04;48.28;101546.31;6120465;28;20478;-67
2023/08/20 10:54:10;;;;;;;4.40;2.40;;;;;;;29.41;48.37;101538.47;6114721;28;20029;-67
2023/08/20 10:57:06;;;;;;;7.45;2.42;;;;;;;29.19;46.67;101524.69;6121764;28;20099;-67
2023/08/20 11:00:09;;;;;;;3.83;2.10;;;;;;;29.20;47.51;101553.69;6117268;28;20034;-66
2023/08/20 11:03:05;;;;;;;6.18;2.03;;;;;;;29.59;46.71;101545.59;6115690;28;20330;-67
2023/08/20 11:06:02;;;;;;;5.95;2.38;;;;;;;29.81;44.64;101550.06;6117102;28;20027;-67
2023/08/20 11:08:58;;;;;;;5.55;2.25;;;;;;;29.80;44.60;101550.28;6112887;28;20062;-68
2023/08/20 11:11:53;;;;;;;3.30;1.70;;;;;;;29.97;43.97;101553.81;6111948;28;20040;-67
2023/08/20 11:14:49;;;;;;;3.65;1.70;;;;;;;30.06;43.99;101546.78;6110936;28;20551;-67
2023/08/20 11:17:45;;;;;;;4.50;1.90;;;;;;;30.05;45.46;101546.00;6119296;28;20032;-68
2023/08/20 11:20:41;;;;;;;4.55;2.13;;;;;;;29.90;44.09;101547.69;6112038;28;20028;-67
2023/08/20 11:23:39;;;;;;;4.85;2.03;;;;;;;29.77;44.27;101548.03;6120018;28;20029;-67
2023/08/20 11:26:38;;;;;;;3.72;2.30;;;;;;;29.72;45.52;101545.22;6118326;28;20186;-67
2023/08/20 11:29:33;;;;;;;4.22;1.95;;;;;;;29.78;44.91;101541.47;6120507;28;20036;-67
2023/08/20 11:32:30;;;;;;;3.50;1.90;;;;;;;29.44;44.45;101538.81;6117160;28;20499;-67
2023/08/20 11:35:25;;;;;;;4.88;2.20;;;;;;;29.54;45.69;101534.56;6116085;28;20036;-67
2023/08/20 11:38:24;;;;;;;3.67;2.08;;;;;;;29.00;47.05;101531.50;6124854;28;20060;-67
2023/08/20 11:41:24;;;;;;;4.22;1.90;;;;;;;28.85;46.44;101539.44;6120545;28;20037;-67
2023/08/20 11:44:21;;;;;;;2.30;1.85;;;;;;;29.36;47.21;101531.03;6118230;28;20040;-67
2023/08/20 11:47:17;;;;;;;4.53;2.30;;;;;;;29.58;44.43;101543.91;6115686;28;20032;-67
2023/08/20 11:50:12;;;;;;;3.85;1.98;;;;;;;29.39;44.91;101527.81;6111157;28;20683;-66
2023/08/20 11:53:09;;;;;;;3.47;1.80;;;;;;;29.94;45.43;101541.47;6114683;28;20495;-67
2023/08/20 11:56:04;;;;;;;3.67;1.95;;;;;;;30.23;46.14;101533.03;6119859;28;20033;-67
2023/08/20 11:59:00;;;;;;;5.50;2.10;;;;;;;30.21;43.49;101533.31;6113604;28;20032;-67
2023/08/20 12:02:01;;;;;;;7.97;1.98;;;;;;;30.31;45.55;101524.38;6117029;28;20028;-67
2023/08/20 12:04:58;;;;;;;3.88;1.67;;;;;;;30.63;42.67;101537.09;6118331;28;20024;-67
2023/08/20 12:08:01;;;;;;;4.70;2.08;;;;;;;30.75;42.63;101530.63;6124419;28;20036;-67
2023/08/20 12:10:57;;;;;;;3.75;1.83;;;;;;;30.28;43.17;101522.97;6119655;28;20040;-67
2023/08/20 12:13:53;;;;;;;2.60;1.73;;;;;;;30.44;42.47;101527.56;6120667;28;20464;-67
2023/08/20 12:16:50;;;;;;;3.42;1.73;;;;;;;30.30;42.56;101520.00;6128675;28;20059;-67
2023/08/20 12:19:46;;;;;;;3.30;2.00;;;;;;;29.73;42.20;101514.91;6122708;28;20043;-67
2023/08/20 12:22:41;;;;;;;4.13;2.13;;;;;;;30.06;42.19;101530.38;6125105;28;20032;-67
2023/08/20 12:25:37;;;;;;;4.67;2.13;;;;;;;29.87;42.46;101520.84;6124132;28;20033;-67
2023/08/20 12:28:32;;;;;;;5.15;2.05;;;;;;;30.05;42.28;101507.69;6124694;28;20044;-67
2023/08/20 12:31:27;;;;;;;4.13;1.77;;;;;;;30.36;41.09;101516.25;6125669;28;20032;-68
2023/08/20 12:34:23;;;;;;;8.90;2.00;;;;;;;30.38;41.27;101512.19;6123146;28;20111;-68
2023/08/20 12:37:19;;;;;;;3.40;2.10;;;;;;;30.60;41.15;101504.72;6125336;28;20115;-67
2023/08/20 12:40:14;;;;;;;4.72;1.98;;;;;;;30.86;40.80;101504.97;6125106;28;20094;-68
2023/08/20 12:43:10;;;;;;;3.70;1.98;;;;;;;30.64;39.97;101500.41;6124968;28;20032;-67
2023/08/20 12:46:05;;;;;;;3.10;2.10;;;;;;;30.68;41.38;101507.00;6124744;28;20098;-67
2023/08/20 12:49:00;;;;;;;4.33;2.00;;;;;;;30.86;39.82;101513.19;6124996;28;20059;-67
2023/08/20 12:51:56;;;;;;;5.00;2.03;;;;;;;29.57;41.99;101498.53;6124897;28;20036;-67
2023/08/20 12:54:51;;;;;;;3.53;1.73;;;;;;;30.61;40.66;101500.09;6124219;28;20024;-67
2023/08/20 12:57:59;;;;;;;4.37;1.83;;;;;;;30.77;41.20;101492.81;6125205;28;20040;-67
2023/08/20 13:00:55;;;;;;;3.38;1.70;;;;;;;31.28;39.34;101508.63;6124707;28;20127;-68
2023/08/20 13:03:50;;;;;;;4.82;2.00;;;;;;;30.91;38.81;101489.41;6124499;28;20377;-67
2023/08/20 13:06:47;;;;;;;6.65;2.10;;;;;;;30.75;39.52;101484.03;6124472;28;20024;-67
2023/08/20 13:09:42;;;;;;;6.05;1.90;;;;;;;30.84;38.71;101498.94;6124335;28;20043;-68
2023/08/20 13:12:41;;;;;;;4.38;2.00;;;;;;;30.63;39.11;101487.78;6124741;28;20115;-68
2023/08/20 13:15:37;;;;;;;3.83;2.00;;;;;;;31.02;39.18;101495.81;6134995;28;20050;-67
2023/08/20 13:18:32;;;;;;;2.88;1.60;;;;;;;30.94;37.82;101496.31;6139746;28;20036;-67
2023/08/20 13:21:28;;;;;;;3.35;1.77;;;;;;;30.92;38.14;101493.00;6124658;28;20396;-67
2023/08/20 13:24:23;;;;;;;3.20;1.63;;;;;;;30.85;37.38;101495.13;6123285;28;20036;-67
2023/08/20 13:27:18;;;;;;;5.90;1.73;;;;;;;31.19;39.01;101508.31;6124199;28;20036;-67